Time;durP1;ratioP1;P1;durP2;ratioP2;P2;SDS_P1;SDS_P2;PMS_P1;PMS_P2;Temp;Humidity;BMP_temperature;BMP_pressure;BME280_temperature;BME280_humidity;BME280_pressure;Samples;Min_cycle;Max_cycle;Signal;HPM_P1;HPM_P2
2022/12/03 00:11:02;;;;;;;31.95;14.10;;;;;;;-1.07;73.02;101112.06;30749451;28;96620;-67
2022/12/03 00:26:02;;;;;;;28.83;13.40;;;;;;;-1.11;73.11;101120.97;30749273;28;97471;-68
2022/12/03 00:41:02;;;;;;;30.60;14.05;;;;;;;-1.10;73.37;101106.97;30747956;28;96904;-67
2022/12/03 00:56:03;;;;;;;24.83;12.93;;;;;;;-1.10;73.58;101101.75;30745919;28;96672;-68
2022/12/03 01:11:36;;;;;;;36.78;15.07;;;;;;;-1.09;73.60;101093.00;30744001;28;96709;-67
2022/12/03 01:26:24;;;;;;;34.65;14.43;;;;;;;-1.08;73.60;101099.94;30742690;28;97181;-67
2022/12/03 01:41:25;;;;;;;42.60;16.50;;;;;;;-1.05;73.63;101091.94;30742195;28;97352;-67
2022/12/03 01:56:26;;;;;;;37.17;16.35;;;;;;;-1.06;73.94;101092.84;30740617;28;97433;-70
2022/12/03 02:11:34;;;;;;;31.52;13.40;;;;;;;-1.05;74.01;101080.63;30738556;28;96787;-68
2022/12/03 02:26:35;;;;;;;35.50;14.98;;;;;;;-1.10;74.15;101082.59;30738080;28;97262;-67
2022/12/03 02:56:54;;;;;;;26.42;13.32;;;;;;;-1.04;74.33;101075.31;30735260;28;97023;-68
2022/12/03 03:11:54;;;;;;;28.92;13.90;;;;;;;-1.03;74.47;101070.94;30733249;28;96976;-67
2022/12/03 03:26:55;;;;;;;28.58;12.48;;;;;;;-1.03;74.67;101066.53;30732828;28;96708;-69
2022/12/03 03:41:55;;;;;;;25.70;13.32;;;;;;;-1.04;74.69;101049.16;30731427;28;96669;-69
2022/12/03 03:56:56;;;;;;;30.25;14.18;;;;;;;-1.06;74.44;101034.47;30730435;28;96695;-69
2022/12/03 04:42:34;;;;;;;28.48;14.30;;;;;;;-1.05;74.71;101031.78;30746788;28;97575;-69
2022/12/03 04:57:35;;;;;;;25.25;13.98;;;;;;;-1.02;75.11;101041.25;30744446;28;96786;-68
2022/12/03 05:12:35;;;;;;;24.85;13.63;;;;;;;-1.03;74.92;101029.06;30742916;28;96769;-68
2022/12/03 05:27:35;;;;;;;30.40;13.98;;;;;;;-0.97;75.06;101028.78;30742955;28;96555;-67
2022/12/03 05:57:56;;;;;;;27.58;14.18;;;;;;;-0.84;75.27;101025.56;30740327;28;97020;-68
2022/12/03 06:12:56;;;;;;;27.67;13.93;;;;;;;-0.81;75.30;101028.03;30737711;28;96991;-68
2022/12/03 06:27:57;;;;;;;35.92;15.93;;;;;;;-0.79;75.16;101032.25;30733529;28;96853;-68
2022/12/03 06:42:57;;;;;;;32.00;14.48;;;;;;;-0.77;75.49;101026.94;30735159;28;96702;-69
2022/12/03 06:57:57;;;;;;;29.20;14.52;;;;;;;-0.80;74.79;101033.19;30732142;28;96629;-68
2022/12/03 07:12:58;;;;;;;36.22;14.25;;;;;;;-0.78;75.40;101023.50;30732037;28;97918;-71
2022/12/03 07:28:13;;;;;;;37.13;15.45;;;;;;;-0.73;75.56;101018.84;30707617;28;96992;-69
2022/12/03 07:43:13;;;;;;;31.52;13.75;;;;;;;-0.63;75.38;101028.88;30729225;28;96638;-68
2022/12/03 07:58:14;;;;;;;33.30;15.90;;;;;;;-0.55;75.47;101014.50;30731517;28;96830;-68
2022/12/03 08:13:16;;;;;;;31.42;16.38;;;;;;;-0.45;75.20;101003.53;30747458;28;96650;-68
2022/12/03 08:28:18;;;;;;;32.50;16.10;;;;;;;-0.31;75.65;101006.28;30747083;28;96707;-70
2022/12/03 08:43:21;;;;;;;32.95;14.13;;;;;;;-0.10;75.44;100980.72;30744297;28;96735;-70
2022/12/03 08:58:22;;;;;;;33.90;15.38;;;;;;;0.10;75.04;100986.69;30744520;28;96700;-68
2022/12/03 09:13:22;;;;;;;32.20;16.55;;;;;;;0.49;74.83;100995.88;30740415;28;96834;-70
2022/12/03 09:28:22;;;;;;;32.05;17.00;;;;;;;0.75;74.68;100983.09;30740906;28;97140;-68
2022/12/03 09:43:23;;;;;;;34.75;17.02;;;;;;;0.87;74.28;100987.63;30739176;28;96982;-68
2022/12/03 09:58:25;;;;;;;34.30;16.40;;;;;;;0.87;74.05;100982.38;30737777;28;98417;-72
2022/12/03 10:13:30;;;;;;;45.03;18.15;;;;;;;0.86;73.46;100979.84;30736258;28;97489;-69
2022/12/03 10:28:33;;;;;;;39.63;20.17;;;;;;;0.87;73.36;100971.91;30735096;28;97454;-72
2022/12/03 10:43:33;;;;;;;39.85;18.65;;;;;;;0.95;73.90;100956.56;30732839;28;97577;-71
2022/12/03 10:58:36;;;;;;;39.45;17.63;;;;;;;0.98;73.81;100935.38;30732817;28;96727;-68
2022/12/03 11:13:37;;;;;;;41.78;19.92;;;;;;;1.11;73.33;100934.69;30731800;28;97184;-71
2022/12/03 11:28:51;;;;;;;43.75;20.95;;;;;;;1.08;73.37;100917.34;30730466;28;96574;-68
2022/12/03 11:43:52;;;;;;;;;;;;;;;1.37;73.23;100909.50;30749807;28;96706;-68
2022/12/03 11:59:03;;;;;;;36.33;18.40;;;;;;;1.54;73.12;100900.56;30750707;28;96796;-71
2022/12/03 12:14:08;;;;;;;48.30;23.42;;;;;;;1.59;72.86;100900.31;30747908;28;96716;-68
2022/12/03 12:29:09;;;;;;;37.33;19.38;;;;;;;1.59;73.13;100887.19;30747226;28;96880;-68
2022/12/03 12:44:09;;;;;;;43.10;21.83;;;;;;;1.68;73.10;100884.81;30744824;28;96584;-68
2022/12/03 12:59:12;;;;;;;37.42;20.35;;;;;;;1.67;72.83;100885.75;30744862;28;96796;-67
2022/12/03 13:14:19;;;;;;;39.53;20.50;;;;;;;1.65;73.23;100882.38;30742754;28;98072;-68
2022/12/03 13:29:21;;;;;;;42.20;20.45;;;;;;;1.63;73.09;100884.25;30741798;28;96656;-69
2022/12/03 13:44:22;;;;;;;47.40;22.40;;;;;;;1.57;73.38;100878.53;30740563;28;96653;-68
2022/12/03 13:59:22;;;;;;;40.85;21.25;;;;;;;1.51;73.04;100874.50;30738035;28;96690;-71
2022/12/03 14:14:22;;;;;;;44.53;20.85;;;;;;;1.45;73.05;100869.63;30737723;28;96837;-68
2022/12/03 14:29:23;;;;;;;41.25;21.10;;;;;;;1.40;73.48;100866.47;30736095;28;96683;-73
2022/12/03 14:44:24;;;;;;;44.53;21.58;;;;;;;1.32;73.42;100854.63;30733351;28;97713;-67
2022/12/03 14:59:24;;;;;;;44.60;20.63;;;;;;;1.26;73.80;100859.41;30733132;28;96672;-68
2022/12/03 15:14:25;;;;;;;40.83;21.83;;;;;;;1.26;74.32;100865.50;30730728;28;96698;-69
2022/12/03 15:29:25;;;;;;;43.90;20.95;;;;;;;1.30;73.79;100872.25;30731407;28;96718;-68
2022/12/03 15:44:25;;;;;;;44.63;21.73;;;;;;;1.32;73.77;100880.88;30730660;28;97128;-67
2022/12/03 15:59:26;;;;;;;45.78;22.15;;;;;;;1.34;74.67;100875.56;30727993;28;98997;-73
2022/12/03 16:14:26;;;;;;;45.63;22.80;;;;;;;1.33;74.23;100865.97;30727666;28;97026;-72
2022/12/03 16:29:27;;;;;;;46.65;24.02;;;;;;;1.35;74.44;100856.22;30743350;28;96935;-68
2022/12/03 16:44:31;;;;;;;52.95;25.63;;;;;;;1.41;74.16;100847.13;30745343;28;96646;-67
2022/12/03 16:59:32;;;;;;;53.22;25.00;;;;;;;1.41;74.21;100855.84;30743476;28;97552;-72
2022/12/03 17:14:32;;;;;;;53.22;26.80;;;;;;;1.44;74.61;100852.19;30743344;28;97606;-70
2022/12/03 17:29:32;;;;;;;59.53;25.55;;;;;;;1.44;74.51;100831.19;30742558;28;97003;-69
2022/12/03 17:44:33;;;;;;;55.17;27.83;;;;;;;1.48;74.74;100822.19;30741193;28;96783;-73
2022/12/03 17:59:33;;;;;;;51.55;25.05;;;;;;;1.56;74.81;100811.19;30739658;28;96723;-70
2022/12/03 18:14:34;;;;;;;56.20;26.98;;;;;;;1.64;74.99;100815.03;30737101;28;96755;-71
2022/12/03 18:29:34;;;;;;;58.95;30.90;;;;;;;1.60;74.65;100821.41;30737007;28;97496;-69
2022/12/03 18:44:34;;;;;;;63.75;30.23;;;;;;;1.71;74.95;100807.59;30735110;28;97706;-68
2022/12/03 18:59:35;;;;;;;56.42;26.58;;;;;;;1.83;75.17;100812.06;30733481;28;96783;-67
2022/12/03 19:14:35;;;;;;;57.63;28.95;;;;;;;1.79;74.86;100802.69;30731222;28;96765;-68
2022/12/03 19:29:36;;;;;;;64.85;30.77;;;;;;;1.77;75.13;100806.38;30731019;28;97085;-68
2022/12/03 19:44:37;;;;;;;66.10;29.27;;;;;;;1.75;75.20;100810.84;30729886;28;97580;-69
2022/12/03 19:59:37;;;;;;;55.80;27.40;;;;;;;1.78;74.86;100826.44;30739930;28;96699;-68
2022/12/03 20:14:37;;;;;;;55.85;27.60;;;;;;;1.77;74.96;100817.69;30748176;28;96895;-70
2022/12/03 20:29:38;;;;;;;51.40;24.05;;;;;;;1.78;74.94;100835.16;30747322;28;96663;-69
2022/12/03 20:44:38;;;;;;;56.38;25.67;;;;;;;1.83;75.32;100824.34;30745564;28;96896;-68
2022/12/03 20:59:39;;;;;;;57.65;27.75;;;;;;;1.88;75.14;100796.00;30743768;28;96612;-69
2022/12/03 21:14:39;;;;;;;56.75;27.55;;;;;;;1.91;74.71;100793.16;30741711;28;96693;-72
2022/12/03 21:29:39;;;;;;;59.17;27.17;;;;;;;1.91;75.10;100801.06;30742520;28;96804;-70
2022/12/03 21:44:40;;;;;;;61.88;28.30;;;;;;;1.92;74.92;100808.00;30739971;28;96776;-73
2022/12/03 21:59:40;;;;;;;61.97;27.95;;;;;;;1.84;75.08;100799.78;30738599;28;96671;-69
2022/12/03 22:14:41;;;;;;;54.38;27.13;;;;;;;1.57;75.12;100805.00;30737921;28;96619;-70
2022/12/03 22:29:41;;;;;;;65.50;31.52;;;;;;;1.44;75.17;100779.50;30738359;28;97096;-70
2022/12/03 22:44:41;;;;;;;69.00;30.48;;;;;;;1.49;75.32;100772.19;30737943;28;97479;-71
2022/12/03 22:59:42;;;;;;;61.00;27.80;;;;;;;1.50;75.86;100752.88;30736208;28;96588;-70
2022/12/03 23:14:42;;;;;;;63.45;28.48;;;;;;;1.51;75.82;100756.34;30734321;28;97091;-71
2022/12/03 23:29:42;;;;;;;57.10;29.13;;;;;;;1.46;75.89;100766.28;30733377;28;96562;-69
2022/12/03 23:44:43;;;;;;;64.88;28.83;;;;;;;1.37;75.54;100741.47;30733105;28;96626;-69
2022/12/03 23:59:43;;;;;;;59.08;27.15;;;;;;;1.46;75.83;100721.66;30731611;28;96777;-69
